sensor_id;sensor_type;location;lat;lon;timestamp;P1;durP1;ratioP1;P2;durP2;ratioP2
73859;SDS011;62197;51.632;13.700;2024-03-02T00:01:19;58.00;;;23.60;;
73859;SDS011;62197;51.632;13.700;2024-03-02T00:03:44;53.20;;;24.03;;
73859;SDS011;62197;51.632;13.700;2024-03-02T00:06:09;56.22;;;24.00;;
73859;SDS011;62197;51.632;13.700;2024-03-02T00:08:35;57.38;;;23.67;;
73859;SDS011;62197;51.632;13.700;2024-03-02T00:11:01;56.28;;;25.23;;
73859;SDS011;62197;51.632;13.700;2024-03-02T00:13:27;51.75;;;23.35;;
73859;SDS011;62197;51.632;13.700;2024-03-02T00:15:55;57.30;;;23.45;;
73859;SDS011;62197;51.632;13.700;2024-03-02T00:18:25;57.58;;;23.35;;
73859;SDS011;62197;51.632;13.700;2024-03-02T00:20:58;58.13;;;25.13;;
73859;SDS011;62197;51.632;13.700;2024-03-02T00:23:27;52.83;;;23.35;;
73859;SDS011;62197;51.632;13.700;2024-03-02T00:25:54;50.72;;;23.67;;
73859;SDS011;62197;51.632;13.700;2024-03-02T00:28:24;53.30;;;24.33;;
73859;SDS011;62197;51.632;13.700;2024-03-02T00:36:05;56.17;;;25.98;;
73859;SDS011;62197;51.632;13.700;2024-03-02T00:38:32;57.97;;;25.02;;
73859;SDS011;62197;51.632;13.700;2024-03-02T00:40:59;55.90;;;26.00;;
73859;SDS011;62197;51.632;13.700;2024-03-02T00:46:15;59.20;;;26.08;;
73859;SDS011;62197;51.632;13.700;2024-03-02T00:48:46;56.58;;;24.50;;
73859;SDS011;62197;51.632;13.700;2024-03-02T00:51:13;56.03;;;25.42;;
73859;SDS011;62197;51.632;13.700;2024-03-02T00:53:38;52.22;;;22.98;;
73859;SDS011;62197;51.632;13.700;2024-03-02T00:56:04;50.60;;;21.63;;
73859;SDS011;62197;51.632;13.700;2024-03-02T00:58:36;50.88;;;22.67;;
73859;SDS011;62197;51.632;13.700;2024-03-02T01:01:01;46.97;;;22.05;;
73859;SDS011;62197;51.632;13.700;2024-03-02T01:03:27;47.03;;;22.97;;
73859;SDS011;62197;51.632;13.700;2024-03-02T01:05:52;46.80;;;23.17;;
73859;SDS011;62197;51.632;13.700;2024-03-02T01:08:17;50.13;;;23.02;;
73859;SDS011;62197;51.632;13.700;2024-03-02T01:10:43;44.42;;;22.30;;
73859;SDS011;62197;51.632;13.700;2024-03-02T01:13:08;46.20;;;20.43;;
73859;SDS011;62197;51.632;13.700;2024-03-02T01:15:34;44.20;;;20.23;;
73859;SDS011;62197;51.632;13.700;2024-03-02T01:17:59;40.38;;;20.45;;
73859;SDS011;62197;51.632;13.700;2024-03-02T01:20:25;44.43;;;20.80;;
73859;SDS011;62197;51.632;13.700;2024-03-02T01:22:50;47.33;;;21.33;;
73859;SDS011;62197;51.632;13.700;2024-03-02T01:25:15;45.53;;;21.48;;
73859;SDS011;62197;51.632;13.700;2024-03-02T01:27:41;49.25;;;22.20;;
73859;SDS011;62197;51.632;13.700;2024-03-02T01:30:06;44.97;;;22.10;;
73859;SDS011;62197;51.632;13.700;2024-03-02T01:32:32;46.50;;;21.80;;
73859;SDS011;62197;51.632;13.700;2024-03-02T01:34:57;40.05;;;19.05;;
73859;SDS011;62197;51.632;13.700;2024-03-02T01:37:23;42.93;;;22.43;;
73859;SDS011;62197;51.632;13.700;2024-03-02T01:39:48;44.30;;;21.03;;
73859;SDS011;62197;51.632;13.700;2024-03-02T01:42:13;41.00;;;18.87;;
73859;SDS011;62197;51.632;13.700;2024-03-02T01:44:39;47.53;;;22.15;;
73859;SDS011;62197;51.632;13.700;2024-03-02T01:47:05;43.97;;;21.77;;
73859;SDS011;62197;51.632;13.700;2024-03-02T01:49:30;43.27;;;21.33;;
73859;SDS011;62197;51.632;13.700;2024-03-02T01:51:56;43.37;;;21.73;;
73859;SDS011;62197;51.632;13.700;2024-03-02T01:54:21;37.95;;;19.70;;
73859;SDS011;62197;51.632;13.700;2024-03-02T01:56:46;44.10;;;20.73;;
73859;SDS011;62197;51.632;13.700;2024-03-02T01:59:12;48.90;;;23.10;;
73859;SDS011;62197;51.632;13.700;2024-03-02T02:01:38;48.15;;;21.48;;
73859;SDS011;62197;51.632;13.700;2024-03-02T02:04:04;42.85;;;20.83;;
73859;SDS011;62197;51.632;13.700;2024-03-02T02:06:31;47.20;;;21.58;;
73859;SDS011;62197;51.632;13.700;2024-03-02T02:08:56;47.75;;;23.98;;
73859;SDS011;62197;51.632;13.700;2024-03-02T02:11:22;51.38;;;22.88;;
73859;SDS011;62197;51.632;13.700;2024-03-02T02:13:47;54.17;;;25.95;;
73859;SDS011;62197;51.632;13.700;2024-03-02T02:16:13;55.53;;;24.33;;
73859;SDS011;62197;51.632;13.700;2024-03-02T02:18:38;50.97;;;25.53;;
73859;SDS011;62197;51.632;13.700;2024-03-02T02:21:03;49.13;;;23.57;;
73859;SDS011;62197;51.632;13.700;2024-03-02T02:23:29;54.60;;;25.37;;
73859;SDS011;62197;51.632;13.700;2024-03-02T02:25:54;52.37;;;25.43;;
73859;SDS011;62197;51.632;13.700;2024-03-02T02:28:19;53.37;;;22.57;;
73859;SDS011;62197;51.632;13.700;2024-03-02T02:30:44;58.30;;;24.70;;
73859;SDS011;62197;51.632;13.700;2024-03-02T02:33:10;56.20;;;25.93;;
73859;SDS011;62197;51.632;13.700;2024-03-02T02:35:35;56.15;;;26.98;;
73859;SDS011;62197;51.632;13.700;2024-03-02T02:38:00;57.03;;;25.27;;
73859;SDS011;62197;51.632;13.700;2024-03-02T02:40:28;63.47;;;27.25;;
73859;SDS011;62197;51.632;13.700;2024-03-02T02:42:55;60.15;;;26.48;;
73859;SDS011;62197;51.632;13.700;2024-03-02T02:45:21;61.65;;;26.77;;
73859;SDS011;62197;51.632;13.700;2024-03-02T02:47:46;64.83;;;28.17;;
73859;SDS011;62197;51.632;13.700;2024-03-02T02:50:11;65.70;;;29.07;;
73859;SDS011;62197;51.632;13.700;2024-03-02T02:52:37;64.38;;;28.48;;
73859;SDS011;62197;51.632;13.700;2024-03-02T02:55:05;75.35;;;30.17;;
73859;SDS011;62197;51.632;13.700;2024-03-02T02:57:34;60.10;;;26.10;;
73859;SDS011;62197;51.632;13.700;2024-03-02T03:00:08;63.15;;;27.48;;
73859;SDS011;62197;51.632;13.700;2024-03-02T03:02:36;64.80;;;27.85;;
73859;SDS011;62197;51.632;13.700;2024-03-02T03:05:02;64.53;;;27.45;;
73859;SDS011;62197;51.632;13.700;2024-03-02T03:07:28;66.50;;;27.52;;
73859;SDS011;62197;51.632;13.700;2024-03-02T03:09:53;59.63;;;27.63;;
73859;SDS011;62197;51.632;13.700;2024-03-02T03:12:19;68.47;;;27.37;;
73859;SDS011;62197;51.632;13.700;2024-03-02T03:14:44;62.67;;;27.27;;
73859;SDS011;62197;51.632;13.700;2024-03-02T03:17:09;61.30;;;27.10;;
73859;SDS011;62197;51.632;13.700;2024-03-02T03:19:35;61.73;;;26.03;;
73859;SDS011;62197;51.632;13.700;2024-03-02T03:22:00;63.58;;;25.88;;
73859;SDS011;62197;51.632;13.700;2024-03-02T03:24:26;58.30;;;25.52;;
73859;SDS011;62197;51.632;13.700;2024-03-02T03:26:51;62.43;;;25.70;;
73859;SDS011;62197;51.632;13.700;2024-03-02T03:29:17;55.13;;;23.60;;
73859;SDS011;62197;51.632;13.700;2024-03-02T03:31:42;61.73;;;26.23;;
73859;SDS011;62197;51.632;13.700;2024-03-02T03:34:07;58.63;;;25.80;;
73859;SDS011;62197;51.632;13.700;2024-03-02T03:36:32;54.67;;;23.93;;
73859;SDS011;62197;51.632;13.700;2024-03-02T03:38:58;57.47;;;24.57;;
73859;SDS011;62197;51.632;13.700;2024-03-02T03:41:23;57.50;;;24.60;;
73859;SDS011;62197;51.632;13.700;2024-03-02T03:43:49;59.28;;;24.67;;
73859;SDS011;62197;51.632;13.700;2024-03-02T03:46:14;56.03;;;25.50;;
73859;SDS011;62197;51.632;13.700;2024-03-02T03:48:40;60.93;;;24.63;;
73859;SDS011;62197;51.632;13.700;2024-03-02T03:51:05;54.90;;;24.33;;
73859;SDS011;62197;51.632;13.700;2024-03-02T03:53:31;52.92;;;23.35;;
73859;SDS011;62197;51.632;13.700;2024-03-02T03:55:56;58.77;;;24.93;;
73859;SDS011;62197;51.632;13.700;2024-03-02T03:58:21;54.03;;;23.47;;
73859;SDS011;62197;51.632;13.700;2024-03-02T04:00:46;60.10;;;24.60;;
73859;SDS011;62197;51.632;13.700;2024-03-02T04:03:12;57.93;;;24.50;;
73859;SDS011;62197;51.632;13.700;2024-03-02T04:05:38;59.22;;;24.85;;
73859;SDS011;62197;51.632;13.700;2024-03-02T04:08:03;59.10;;;24.77;;
73859;SDS011;62197;51.632;13.700;2024-03-02T04:10:29;56.40;;;23.65;;
73859;SDS011;62197;51.632;13.700;2024-03-02T04:12:55;61.55;;;25.88;;
73859;SDS011;62197;51.632;13.700;2024-03-02T04:15:20;60.65;;;24.45;;
73859;SDS011;62197;51.632;13.700;2024-03-02T04:17:48;57.17;;;24.67;;
73859;SDS011;62197;51.632;13.700;2024-03-02T04:20:13;59.67;;;24.55;;
73859;SDS011;62197;51.632;13.700;2024-03-02T04:22:38;57.15;;;24.25;;
73859;SDS011;62197;51.632;13.700;2024-03-02T04:25:04;57.27;;;24.63;;
73859;SDS011;62197;51.632;13.700;2024-03-02T04:27:29;58.95;;;22.85;;
73859;SDS011;62197;51.632;13.700;2024-03-02T04:29:55;63.17;;;26.00;;
73859;SDS011;62197;51.632;13.700;2024-03-02T04:32:20;52.17;;;22.90;;
73859;SDS011;62197;51.632;13.700;2024-03-02T04:34:46;54.30;;;23.60;;
73859;SDS011;62197;51.632;13.700;2024-03-02T04:37:11;59.30;;;23.80;;
73859;SDS011;62197;51.632;13.700;2024-03-02T04:39:37;52.97;;;23.42;;
73859;SDS011;62197;51.632;13.700;2024-03-02T04:42:03;60.37;;;23.40;;
73859;SDS011;62197;51.632;13.700;2024-03-02T04:44:28;60.75;;;25.60;;
73859;SDS011;62197;51.632;13.700;2024-03-02T04:46:53;53.70;;;22.57;;
73859;SDS011;62197;51.632;13.700;2024-03-02T04:49:19;62.53;;;25.27;;
73859;SDS011;62197;51.632;13.700;2024-03-02T04:51:44;60.00;;;24.80;;
73859;SDS011;62197;51.632;13.700;2024-03-02T04:54:09;58.20;;;23.83;;
73859;SDS011;62197;51.632;13.700;2024-03-02T04:56:35;53.73;;;23.20;;
73859;SDS011;62197;51.632;13.700;2024-03-02T04:59:09;52.35;;;22.63;;
73859;SDS011;62197;51.632;13.700;2024-03-02T05:01:35;57.22;;;25.27;;
73859;SDS011;62197;51.632;13.700;2024-03-02T05:04:01;53.03;;;23.77;;
73859;SDS011;62197;51.632;13.700;2024-03-02T05:06:26;57.15;;;23.98;;
73859;SDS011;62197;51.632;13.700;2024-03-02T05:08:51;55.27;;;24.50;;
73859;SDS011;62197;51.632;13.700;2024-03-02T05:11:17;62.83;;;25.40;;
73859;SDS011;62197;51.632;13.700;2024-03-02T05:14:17;59.58;;;25.38;;
73859;SDS011;62197;51.632;13.700;2024-03-02T05:16:43;54.87;;;24.17;;
73859;SDS011;62197;51.632;13.700;2024-03-02T05:19:08;51.77;;;22.43;;
73859;SDS011;62197;51.632;13.700;2024-03-02T05:21:34;66.73;;;25.20;;
73859;SDS011;62197;51.632;13.700;2024-03-02T05:23:59;57.50;;;23.30;;
73859;SDS011;62197;51.632;13.700;2024-03-02T05:26:25;58.53;;;22.98;;
73859;SDS011;62197;51.632;13.700;2024-03-02T05:28:50;58.90;;;25.23;;
73859;SDS011;62197;51.632;13.700;2024-03-02T05:31:16;54.75;;;24.10;;
73859;SDS011;62197;51.632;13.700;2024-03-02T05:33:42;58.65;;;24.58;;
73859;SDS011;62197;51.632;13.700;2024-03-02T05:36:08;54.20;;;24.40;;
73859;SDS011;62197;51.632;13.700;2024-03-02T05:38:36;58.33;;;23.98;;
73859;SDS011;62197;51.632;13.700;2024-03-02T05:41:02;59.30;;;24.42;;
73859;SDS011;62197;51.632;13.700;2024-03-02T05:43:28;70.60;;;29.35;;
73859;SDS011;62197;51.632;13.700;2024-03-02T05:45:53;59.17;;;24.70;;
73859;SDS011;62197;51.632;13.700;2024-03-02T05:48:19;59.05;;;24.10;;
73859;SDS011;62197;51.632;13.700;2024-03-02T05:50:44;54.80;;;24.00;;
73859;SDS011;62197;51.632;13.700;2024-03-02T05:53:09;54.97;;;22.67;;
73859;SDS011;62197;51.632;13.700;2024-03-02T05:55:35;50.33;;;21.73;;
73859;SDS011;62197;51.632;13.700;2024-03-02T05:58:00;61.07;;;24.57;;
73859;SDS011;62197;51.632;13.700;2024-03-02T06:02:57;51.13;;;22.60;;
73859;SDS011;62197;51.632;13.700;2024-03-02T06:05:22;50.85;;;22.95;;
73859;SDS011;62197;51.632;13.700;2024-03-02T06:07:48;51.00;;;22.05;;
73859;SDS011;62197;51.632;13.700;2024-03-02T06:10:13;56.47;;;24.35;;
73859;SDS011;62197;51.632;13.700;2024-03-02T06:12:39;56.22;;;23.23;;
73859;SDS011;62197;51.632;13.700;2024-03-02T06:15:04;58.08;;;23.27;;
73859;SDS011;62197;51.632;13.700;2024-03-02T06:17:30;56.33;;;23.63;;
73859;SDS011;62197;51.632;13.700;2024-03-02T06:19:55;56.87;;;25.57;;
73859;SDS011;62197;51.632;13.700;2024-03-02T06:22:21;61.23;;;25.37;;
73859;SDS011;62197;51.632;13.700;2024-03-02T06:24:47;59.38;;;24.15;;
73859;SDS011;62197;51.632;13.700;2024-03-02T06:27:13;57.92;;;24.38;;
73859;SDS011;62197;51.632;13.700;2024-03-02T06:29:38;53.93;;;24.27;;
73859;SDS011;62197;51.632;13.700;2024-03-02T06:32:04;52.90;;;22.90;;
73859;SDS011;62197;51.632;13.700;2024-03-02T06:34:29;49.53;;;22.70;;
73859;SDS011;62197;51.632;13.700;2024-03-02T06:36:54;52.63;;;24.13;;
73859;SDS011;62197;51.632;13.700;2024-03-02T06:39:20;50.75;;;20.88;;
73859;SDS011;62197;51.632;13.700;2024-03-02T06:41:46;50.73;;;23.03;;
73859;SDS011;62197;51.632;13.700;2024-03-02T06:44:12;52.42;;;20.98;;
73859;SDS011;62197;51.632;13.700;2024-03-02T06:46:37;50.53;;;22.85;;
73859;SDS011;62197;51.632;13.700;2024-03-02T06:49:03;54.37;;;22.13;;
73859;SDS011;62197;51.632;13.700;2024-03-02T06:51:29;51.78;;;23.15;;
73859;SDS011;62197;51.632;13.700;2024-03-02T06:53:54;49.13;;;21.75;;
73859;SDS011;62197;51.632;13.700;2024-03-02T06:56:20;57.30;;;23.95;;
73859;SDS011;62197;51.632;13.700;2024-03-02T06:58:45;60.03;;;22.77;;
73859;SDS011;62197;51.632;13.700;2024-03-02T07:01:11;50.72;;;21.90;;
73859;SDS011;62197;51.632;13.700;2024-03-02T07:03:36;51.47;;;22.43;;
73859;SDS011;62197;51.632;13.700;2024-03-02T07:06:02;41.42;;;19.77;;
73859;SDS011;62197;51.632;13.700;2024-03-02T07:08:27;52.03;;;23.27;;
73859;SDS011;62197;51.632;13.700;2024-03-02T07:10:53;51.37;;;20.90;;
73859;SDS011;62197;51.632;13.700;2024-03-02T07:13:18;47.17;;;19.57;;
73859;SDS011;62197;51.632;13.700;2024-03-02T07:15:43;47.50;;;20.33;;
73859;SDS011;62197;51.632;13.700;2024-03-02T07:18:27;55.60;;;22.05;;
73859;SDS011;62197;51.632;13.700;2024-03-02T07:20:52;51.13;;;22.83;;
73859;SDS011;62197;51.632;13.700;2024-03-02T07:23:18;47.50;;;20.77;;
73859;SDS011;62197;51.632;13.700;2024-03-02T07:25:44;46.63;;;21.10;;
73859;SDS011;62197;51.632;13.700;2024-03-02T07:28:09;49.20;;;21.27;;
73859;SDS011;62197;51.632;13.700;2024-03-02T07:30:35;55.50;;;23.30;;
73859;SDS011;62197;51.632;13.700;2024-03-02T07:33:00;48.37;;;21.97;;
73859;SDS011;62197;51.632;13.700;2024-03-02T07:35:25;41.47;;;18.80;;
73859;SDS011;62197;51.632;13.700;2024-03-02T07:37:56;50.33;;;21.25;;
73859;SDS011;62197;51.632;13.700;2024-03-02T07:40:22;44.03;;;21.75;;
73859;SDS011;62197;51.632;13.700;2024-03-02T07:42:47;43.40;;;20.88;;
73859;SDS011;62197;51.632;13.700;2024-03-02T07:45:13;48.10;;;20.53;;
73859;SDS011;62197;51.632;13.700;2024-03-02T07:47:38;43.63;;;20.00;;
73859;SDS011;62197;51.632;13.700;2024-03-02T07:50:03;47.00;;;21.37;;
73859;SDS011;62197;51.632;13.700;2024-03-02T07:52:31;51.83;;;22.70;;
73859;SDS011;62197;51.632;13.700;2024-03-02T07:54:57;44.75;;;19.58;;
73859;SDS011;62197;51.632;13.700;2024-03-02T07:57:22;42.83;;;18.57;;
73859;SDS011;62197;51.632;13.700;2024-03-02T07:59:47;42.77;;;18.77;;
73859;SDS011;62197;51.632;13.700;2024-03-02T08:02:14;54.00;;;20.65;;
73859;SDS011;62197;51.632;13.700;2024-03-02T08:04:39;48.63;;;20.23;;
73859;SDS011;62197;51.632;13.700;2024-03-02T08:07:05;51.28;;;20.90;;
73859;SDS011;62197;51.632;13.700;2024-03-02T08:09:31;44.28;;;18.10;;
73859;SDS011;62197;51.632;13.700;2024-03-02T08:11:56;47.80;;;20.93;;
73859;SDS011;62197;51.632;13.700;2024-03-02T08:14:24;43.03;;;20.80;;
73859;SDS011;62197;51.632;13.700;2024-03-02T08:16:50;46.50;;;18.83;;
73859;SDS011;62197;51.632;13.700;2024-03-02T08:19:15;43.08;;;20.08;;
73859;SDS011;62197;51.632;13.700;2024-03-02T08:21:41;52.05;;;22.08;;
73859;SDS011;62197;51.632;13.700;2024-03-02T08:24:07;44.40;;;19.23;;
73859;SDS011;62197;51.632;13.700;2024-03-02T08:26:32;48.22;;;20.02;;
73859;SDS011;62197;51.632;13.700;2024-03-02T08:28:58;42.63;;;18.98;;
73859;SDS011;62197;51.632;13.700;2024-03-02T08:31:24;44.30;;;17.75;;
73859;SDS011;62197;51.632;13.700;2024-03-02T08:33:49;46.57;;;19.30;;
73859;SDS011;62197;51.632;13.700;2024-03-02T08:36:14;41.87;;;18.63;;
73859;SDS011;62197;51.632;13.700;2024-03-02T08:38:40;43.03;;;18.05;;
73859;SDS011;62197;51.632;13.700;2024-03-02T08:41:06;39.55;;;18.42;;
73859;SDS011;62197;51.632;13.700;2024-03-02T08:43:32;42.75;;;18.65;;
73859;SDS011;62197;51.632;13.700;2024-03-02T08:45:57;44.15;;;19.10;;
73859;SDS011;62197;51.632;13.700;2024-03-02T08:48:23;46.35;;;19.42;;
73859;SDS011;62197;51.632;13.700;2024-03-02T08:50:48;40.30;;;18.43;;
73859;SDS011;62197;51.632;13.700;2024-03-02T08:53:13;43.80;;;18.50;;
73859;SDS011;62197;51.632;13.700;2024-03-02T08:55:43;43.08;;;17.45;;
73859;SDS011;62197;51.632;13.700;2024-03-02T08:58:09;38.90;;;18.55;;
73859;SDS011;62197;51.632;13.700;2024-03-02T09:00:34;39.80;;;16.97;;
73859;SDS011;62197;51.632;13.700;2024-03-02T09:02:59;41.07;;;17.93;;
73859;SDS011;62197;51.632;13.700;2024-03-02T09:05:25;35.67;;;17.17;;
73859;SDS011;62197;51.632;13.700;2024-03-02T09:07:50;42.93;;;18.80;;
73859;SDS011;62197;51.632;13.700;2024-03-02T09:10:15;43.60;;;18.47;;
73859;SDS011;62197;51.632;13.700;2024-03-02T09:12:40;40.53;;;18.90;;
73859;SDS011;62197;51.632;13.700;2024-03-02T09:15:06;45.05;;;18.90;;
73859;SDS011;62197;51.632;13.700;2024-03-02T09:17:32;44.05;;;19.30;;
73859;SDS011;62197;51.632;13.700;2024-03-02T09:19:57;41.33;;;19.08;;
73859;SDS011;62197;51.632;13.700;2024-03-02T09:22:23;45.37;;;21.43;;
73859;SDS011;62197;51.632;13.700;2024-03-02T09:24:48;45.13;;;18.83;;
73859;SDS011;62197;51.632;13.700;2024-03-02T09:27:13;44.92;;;19.73;;
73859;SDS011;62197;51.632;13.700;2024-03-02T09:29:39;41.53;;;19.20;;
73859;SDS011;62197;51.632;13.700;2024-03-02T09:32:04;41.27;;;20.17;;
73859;SDS011;62197;51.632;13.700;2024-03-02T09:34:30;46.75;;;20.38;;
73859;SDS011;62197;51.632;13.700;2024-03-02T09:36:56;43.83;;;19.15;;
73859;SDS011;62197;51.632;13.700;2024-03-02T09:39:22;47.17;;;18.60;;
73859;SDS011;62197;51.632;13.700;2024-03-02T09:41:47;43.97;;;19.98;;
73859;SDS011;62197;51.632;13.700;2024-03-02T09:44:13;42.22;;;18.67;;
73859;SDS011;62197;51.632;13.700;2024-03-02T09:46:39;41.42;;;19.52;;
73859;SDS011;62197;51.632;13.700;2024-03-02T09:49:04;39.37;;;16.90;;
73859;SDS011;62197;51.632;13.700;2024-03-02T09:51:30;41.83;;;18.40;;
73859;SDS011;62197;51.632;13.700;2024-03-02T09:53:56;49.40;;;20.15;;
73859;SDS011;62197;51.632;13.700;2024-03-02T09:56:22;41.13;;;18.77;;
73859;SDS011;62197;51.632;13.700;2024-03-02T09:58:47;47.60;;;20.00;;
73859;SDS011;62197;51.632;13.700;2024-03-02T10:01:13;39.97;;;19.17;;
73859;SDS011;62197;51.632;13.700;2024-03-02T10:03:38;44.63;;;18.33;;
73859;SDS011;62197;51.632;13.700;2024-03-02T10:06:23;40.00;;;17.58;;
73859;SDS011;62197;51.632;13.700;2024-03-02T10:08:49;37.55;;;18.02;;
73859;SDS011;62197;51.632;13.700;2024-03-02T10:11:27;32.58;;;15.32;;
73859;SDS011;62197;51.632;13.700;2024-03-02T10:14:03;38.58;;;16.65;;
73859;SDS011;62197;51.632;13.700;2024-03-02T10:16:33;38.72;;;17.77;;
73859;SDS011;62197;51.632;13.700;2024-03-02T10:19:35;45.45;;;19.50;;
73859;SDS011;62197;51.632;13.700;2024-03-02T10:21:57;39.63;;;17.83;;
73859;SDS011;62197;51.632;13.700;2024-03-02T10:24:23;35.58;;;17.30;;
73859;SDS011;62197;51.632;13.700;2024-03-02T10:26:50;37.53;;;16.77;;
73859;SDS011;62197;51.632;13.700;2024-03-02T10:29:16;34.65;;;16.05;;
73859;SDS011;62197;51.632;13.700;2024-03-02T10:31:43;34.20;;;15.90;;
73859;SDS011;62197;51.632;13.700;2024-03-02T10:34:10;32.03;;;15.20;;
73859;SDS011;62197;51.632;13.700;2024-03-02T10:36:37;34.05;;;15.73;;
73859;SDS011;62197;51.632;13.700;2024-03-02T10:39:06;34.53;;;16.27;;
73859;SDS011;62197;51.632;13.700;2024-03-02T10:41:35;33.17;;;15.27;;
73859;SDS011;62197;51.632;13.700;2024-03-02T10:44:03;36.53;;;17.23;;
73859;SDS011;62197;51.632;13.700;2024-03-02T10:46:29;39.22;;;15.93;;
73859;SDS011;62197;51.632;13.700;2024-03-02T10:48:56;38.55;;;17.35;;
73859;SDS011;62197;51.632;13.700;2024-03-02T10:51:25;31.85;;;16.15;;
73859;SDS011;62197;51.632;13.700;2024-03-02T10:53:56;35.45;;;16.75;;
73859;SDS011;62197;51.632;13.700;2024-03-02T10:56:27;32.28;;;14.38;;
73859;SDS011;62197;51.632;13.700;2024-03-02T10:58:55;31.42;;;15.50;;
73859;SDS011;62197;51.632;13.700;2024-03-02T11:01:29;32.33;;;15.05;;
73859;SDS011;62197;51.632;13.700;2024-03-02T11:03:56;33.67;;;15.00;;
73859;SDS011;62197;51.632;13.700;2024-03-02T11:06:23;33.88;;;16.35;;
73859;SDS011;62197;51.632;13.700;2024-03-02T11:08:51;33.55;;;14.68;;
73859;SDS011;62197;51.632;13.700;2024-03-02T11:11:21;28.40;;;15.30;;
73859;SDS011;62197;51.632;13.700;2024-03-02T11:13:52;35.50;;;14.43;;
73859;SDS011;62197;51.632;13.700;2024-03-02T11:16:32;28.73;;;12.75;;
73859;SDS011;62197;51.632;13.700;2024-03-02T11:19:03;28.05;;;13.18;;
73859;SDS011;62197;51.632;13.700;2024-03-02T11:21:30;24.55;;;12.07;;
73859;SDS011;62197;51.632;13.700;2024-03-02T11:23:58;25.25;;;11.70;;
73859;SDS011;62197;51.632;13.700;2024-03-02T11:26:23;21.53;;;10.57;;
73859;SDS011;62197;51.632;13.700;2024-03-02T11:28:49;22.48;;;10.88;;
73859;SDS011;62197;51.632;13.700;2024-03-02T11:31:14;25.08;;;10.82;;
73859;SDS011;62197;51.632;13.700;2024-03-02T11:33:40;20.08;;;10.32;;
73859;SDS011;62197;51.632;13.700;2024-03-02T11:36:08;19.30;;;9.43;;
73859;SDS011;62197;51.632;13.700;2024-03-02T11:38:34;17.33;;;8.27;;
73859;SDS011;62197;51.632;13.700;2024-03-02T11:41:01;20.25;;;8.82;;
73859;SDS011;62197;51.632;13.700;2024-03-02T11:43:30;17.20;;;8.68;;
73859;SDS011;62197;51.632;13.700;2024-03-02T11:45:59;18.67;;;9.32;;
73859;SDS011;62197;51.632;13.700;2024-03-02T11:48:25;16.88;;;8.40;;
73859;SDS011;62197;51.632;13.700;2024-03-02T11:50:51;19.48;;;10.00;;
73859;SDS011;62197;51.632;13.700;2024-03-02T11:53:17;20.75;;;10.13;;
73859;SDS011;62197;51.632;13.700;2024-03-02T11:55:44;20.05;;;8.75;;
73859;SDS011;62197;51.632;13.700;2024-03-02T11:58:13;19.55;;;9.10;;
73859;SDS011;62197;51.632;13.700;2024-03-02T12:00:39;22.15;;;9.77;;
73859;SDS011;62197;51.632;13.700;2024-03-02T12:03:08;20.53;;;10.13;;
73859;SDS011;62197;51.632;13.700;2024-03-02T12:05:36;18.00;;;8.43;;
73859;SDS011;62197;51.632;13.700;2024-03-02T12:08:03;18.55;;;9.02;;
73859;SDS011;62197;51.632;13.700;2024-03-02T12:10:30;19.25;;;8.75;;
73859;SDS011;62197;51.632;13.700;2024-03-02T12:12:58;16.80;;;8.20;;
73859;SDS011;62197;51.632;13.700;2024-03-02T12:15:36;13.20;;;6.63;;
73859;SDS011;62197;51.632;13.700;2024-03-02T12:18:03;17.27;;;8.48;;
73859;SDS011;62197;51.632;13.700;2024-03-02T12:20:29;15.82;;;7.68;;
73859;SDS011;62197;51.632;13.700;2024-03-02T12:22:57;15.95;;;6.22;;
73859;SDS011;62197;51.632;13.700;2024-03-02T12:25:24;17.20;;;8.52;;
73859;SDS011;62197;51.632;13.700;2024-03-02T12:27:51;15.63;;;6.82;;
73859;SDS011;62197;51.632;13.700;2024-03-02T12:30:18;14.55;;;7.07;;
73859;SDS011;62197;51.632;13.700;2024-03-02T12:32:44;13.82;;;7.30;;
73859;SDS011;62197;51.632;13.700;2024-03-02T12:35:10;19.35;;;8.30;;
73859;SDS011;62197;51.632;13.700;2024-03-02T12:37:43;16.25;;;7.30;;
73859;SDS011;62197;51.632;13.700;2024-03-02T12:40:10;16.17;;;7.25;;
73859;SDS011;62197;51.632;13.700;2024-03-02T12:42:37;15.25;;;6.55;;
73859;SDS011;62197;51.632;13.700;2024-03-02T12:45:02;15.10;;;6.50;;
73859;SDS011;62197;51.632;13.700;2024-03-02T12:47:28;13.80;;;7.25;;
73859;SDS011;62197;51.632;13.700;2024-03-02T12:49:54;17.13;;;6.10;;
73859;SDS011;62197;51.632;13.700;2024-03-02T12:52:21;16.08;;;6.13;;
73859;SDS011;62197;51.632;13.700;2024-03-02T12:54:46;15.73;;;5.93;;
73859;SDS011;62197;51.632;13.700;2024-03-02T12:57:16;11.80;;;5.27;;
73859;SDS011;62197;51.632;13.700;2024-03-02T12:59:44;15.15;;;6.20;;
73859;SDS011;62197;51.632;13.700;2024-03-02T13:02:16;13.95;;;5.63;;
73859;SDS011;62197;51.632;13.700;2024-03-02T13:04:42;15.38;;;6.32;;
73859;SDS011;62197;51.632;13.700;2024-03-02T13:07:07;12.33;;;5.73;;
73859;SDS011;62197;51.632;13.700;2024-03-02T13:09:33;15.27;;;6.72;;
73859;SDS011;62197;51.632;13.700;2024-03-02T13:11:59;15.23;;;6.00;;
73859;SDS011;62197;51.632;13.700;2024-03-02T13:14:25;15.30;;;6.63;;
73859;SDS011;62197;51.632;13.700;2024-03-02T13:16:51;17.05;;;6.90;;
73859;SDS011;62197;51.632;13.700;2024-03-02T13:19:17;13.07;;;5.88;;
73859;SDS011;62197;51.632;13.700;2024-03-02T13:21:44;15.80;;;6.22;;
73859;SDS011;62197;51.632;13.700;2024-03-02T13:24:09;12.95;;;5.63;;
73859;SDS011;62197;51.632;13.700;2024-03-02T13:26:34;13.05;;;5.85;;
73859;SDS011;62197;51.632;13.700;2024-03-02T13:29:00;17.63;;;6.95;;
73859;SDS011;62197;51.632;13.700;2024-03-02T13:31:25;15.50;;;6.57;;
73859;SDS011;62197;51.632;13.700;2024-03-02T13:33:50;12.07;;;5.40;;
73859;SDS011;62197;51.632;13.700;2024-03-02T13:36:16;11.53;;;5.30;;
73859;SDS011;62197;51.632;13.700;2024-03-02T13:38:42;11.68;;;5.53;;
73859;SDS011;62197;51.632;13.700;2024-03-02T13:41:07;13.53;;;5.50;;
73859;SDS011;62197;51.632;13.700;2024-03-02T13:43:32;13.03;;;5.97;;
73859;SDS011;62197;51.632;13.700;2024-03-02T13:45:59;16.77;;;6.00;;
73859;SDS011;62197;51.632;13.700;2024-03-02T13:48:25;16.07;;;6.13;;
73859;SDS011;62197;51.632;13.700;2024-03-02T13:50:53;14.60;;;6.00;;
73859;SDS011;62197;51.632;13.700;2024-03-02T13:53:18;19.05;;;7.07;;
73859;SDS011;62197;51.632;13.700;2024-03-02T13:55:44;14.02;;;7.30;;
73859;SDS011;62197;51.632;13.700;2024-03-02T13:58:10;19.85;;;8.43;;
73859;SDS011;62197;51.632;13.700;2024-03-02T14:00:36;16.25;;;7.95;;
73859;SDS011;62197;51.632;13.700;2024-03-02T14:03:02;19.85;;;8.95;;
73859;SDS011;62197;51.632;13.700;2024-03-02T14:05:28;19.42;;;8.40;;
73859;SDS011;62197;51.632;13.700;2024-03-02T14:07:54;14.88;;;7.53;;
73859;SDS011;62197;51.632;13.700;2024-03-02T14:10:19;15.25;;;7.35;;
73859;SDS011;62197;51.632;13.700;2024-03-02T14:12:47;17.60;;;7.45;;
73859;SDS011;62197;51.632;13.700;2024-03-02T14:15:12;18.07;;;7.50;;
73859;SDS011;62197;51.632;13.700;2024-03-02T14:17:37;20.57;;;8.60;;